createdAt,value
2019-01-25T00:03:47.797Z,22.17
2019-01-25T00:08:43.952Z,28.77
2019-01-25T00:13:42.657Z,24.50
2019-01-25T00:18:39.975Z,25.10
2019-01-25T00:23:36.339Z,27.13
2019-01-25T00:28:32.277Z,26.07
2019-01-25T00:33:30.381Z,24.53
2019-01-25T00:38:27.700Z,24.63
2019-01-25T00:43:26.626Z,28.17
2019-01-25T00:48:25.977Z,25.67
2019-01-25T00:53:26.204Z,25.10
2019-01-25T00:58:22.488Z,25.83
2019-01-25T01:03:18.462Z,28.10
2019-01-25T01:08:14.456Z,25.43
2019-01-25T01:13:10.701Z,25.47
2019-01-25T01:18:07.854Z,31.77
2019-01-25T01:23:05.258Z,26.47
2019-01-25T01:28:01.574Z,29.57
2019-01-25T01:33:00.033Z,25.17
2019-01-25T01:37:56.434Z,28.60
2019-01-25T01:42:53.179Z,28.23
2019-01-25T01:47:55.355Z,28.87
2019-01-25T01:52:52.736Z,30.20
2019-01-25T01:57:58.389Z,31.97
2019-01-25T02:02:54.398Z,30.73
2019-01-25T02:07:53.627Z,34.27
2019-01-25T02:12:50.960Z,30.80
2019-01-25T02:17:48.615Z,30.53
2019-01-25T02:22:47.674Z,30.20
2019-01-25T02:27:45.079Z,27.83
2019-01-25T02:32:41.965Z,28.30
2019-01-25T02:37:38.238Z,29.77
2019-01-25T02:42:35.067Z,30.47
2019-01-25T02:47:32.915Z,28.03
2019-01-25T02:52:30.194Z,27.33
2019-01-25T02:57:26.552Z,33.33
2019-01-25T03:02:23.751Z,32.97
2019-01-25T03:07:20.069Z,31.27
2019-01-25T03:12:16.570Z,32.20
2019-01-25T03:17:12.763Z,30.13
2019-01-25T03:22:09.113Z,31.47
2019-01-25T03:27:05.550Z,33.03
2019-01-25T03:32:02.934Z,28.33
2019-01-25T03:37:00.173Z,33.10
2019-01-25T03:41:57.188Z,34.20
2019-01-25T03:46:53.237Z,27.90
2019-01-25T03:51:49.191Z,34.17
2019-01-25T03:56:47.970Z,31.30
2019-01-25T04:01:44.014Z,32.50
2019-01-25T04:06:43.112Z,37.13
2019-01-25T04:11:39.269Z,34.10
2019-01-25T04:16:35.165Z,37.00
2019-01-25T04:21:31.910Z,34.40
2019-01-25T04:26:28.641Z,39.23
2019-01-25T04:31:28.705Z,32.37
2019-01-25T04:36:24.615Z,39.00
2019-01-25T04:41:21.340Z,37.20
2019-01-25T04:46:17.143Z,31.77
2019-01-25T04:51:13.062Z,38.87
2019-01-25T04:56:09.271Z,36.93
2019-01-25T05:01:15.844Z,37.97
2019-01-25T05:06:14.966Z,39.53
2019-01-25T05:11:33.814Z,40.20
2019-01-25T05:16:31.159Z,32.87
2019-01-25T05:21:29.246Z,38.67
2019-01-25T05:26:28.348Z,31.80
2019-01-25T05:31:30.885Z,35.97
2019-01-25T05:36:27.678Z,36.60
2019-01-25T05:41:28.617Z,34.50
2019-01-25T05:46:27.031Z,36.23
2019-01-25T05:51:34.549Z,39.57
2019-01-25T05:56:33.776Z,42.07
2019-01-25T06:01:40.533Z,38.43
2019-01-25T06:06:44.021Z,36.27
2019-01-25T06:11:41.704Z,39.63
2019-01-25T06:16:49.411Z,35.73
2019-01-25T06:22:49.764Z,37.87
2019-01-25T06:47:47.509Z,38.00
2019-01-25T06:53:42.633Z,38.70
2019-01-25T06:59:05.450Z,40.93
2019-01-25T07:10:13.022Z,29.87
2019-01-25T07:27:40.790Z,39.90
2019-01-25T07:32:57.268Z,36.43
2019-01-25T07:37:57.766Z,37.23
2019-01-25T07:43:05.349Z,38.77
2019-01-25T07:49:31.485Z,37.10
2019-01-25T07:55:02.770Z,33.13
2019-01-25T08:17:52.881Z,35.07
2019-01-25T08:23:11.817Z,35.07
2019-01-25T08:28:25.857Z,38.73
2019-01-25T08:33:28.025Z,33.63
2019-01-25T08:38:24.006Z,34.43
2019-01-25T08:43:32.865Z,36.40
2019-01-25T08:49:35.172Z,34.53
2019-01-25T08:54:31.111Z,35.93
2019-01-25T08:59:27.166Z,33.37
2019-01-25T09:04:26.354Z,40.07
2019-01-25T09:09:25.791Z,34.43
2019-01-25T09:14:23.207Z,35.77
2019-01-25T09:20:00.187Z,30.80
2019-01-25T09:25:04.513Z,35.40
2019-01-25T09:30:03.005Z,31.97
2019-01-25T09:35:07.839Z,34.60
2019-01-25T09:40:04.004Z,31.53
2019-01-25T09:45:06.029Z,34.53
2019-01-25T09:50:01.892Z,34.33
2019-01-25T09:54:58.036Z,35.37
2019-01-25T10:00:08.215Z,37.73
2019-01-25T10:05:13.335Z,37.43
2019-01-25T10:10:12.498Z,35.37
2019-01-25T10:15:12.271Z,31.90
2019-01-25T10:20:11.605Z,35.77
2019-01-25T10:25:12.423Z,31.83
2019-01-25T10:30:17.288Z,34.70
2019-01-25T10:35:23.711Z,34.83
2019-01-25T10:40:22.362Z,34.37
2019-01-25T10:45:44.521Z,30.63
2019-01-25T10:50:42.787Z,37.77
2019-01-25T10:55:39.147Z,34.23
2019-01-25T11:00:38.194Z,31.77
2019-01-25T11:05:40.536Z,36.70
2019-01-25T11:10:37.841Z,35.10
2019-01-25T11:15:39.536Z,33.40
2019-01-25T11:20:35.413Z,31.47
2019-01-25T11:25:35.518Z,33.17
2019-01-25T11:30:31.468Z,32.07
2019-01-25T11:35:29.955Z,31.40
2019-01-25T11:40:32.207Z,31.90
2019-01-25T11:45:37.160Z,32.87
2019-01-25T11:50:35.145Z,38.67
2019-01-25T11:55:31.036Z,32.43
2019-01-25T12:00:33.303Z,31.33
2019-01-25T12:05:29.449Z,29.83
2019-01-25T12:10:38.225Z,28.60
2019-01-25T12:15:34.352Z,35.60
2019-01-25T12:21:31.535Z,29.57
2019-01-25T12:26:56.978Z,35.97
2019-01-25T12:31:53.360Z,36.67
2019-01-25T12:36:54.322Z,34.33
2019-01-25T12:41:54.239Z,28.57
2019-01-25T12:46:58.762Z,37.37
2019-01-25T12:52:08.306Z,31.83
2019-01-25T12:57:19.455Z,30.67
2019-01-25T13:02:26.517Z,29.63
2019-01-25T13:07:25.568Z,31.33
2019-01-25T13:12:37.661Z,29.67
2019-01-25T13:17:49.009Z,29.80
2019-01-25T13:22:52.831Z,28.70
2019-01-25T13:27:50.946Z,31.87
2019-01-25T13:32:46.995Z,28.77
2019-01-25T13:38:45.763Z,29.60
2019-01-25T13:43:45.866Z,26.67
2019-01-25T13:48:43.284Z,26.70
2019-01-25T13:53:39.262Z,25.63
2019-01-25T13:58:35.251Z,24.00
2019-01-25T14:03:31.326Z,19.87
2019-01-25T14:08:29.306Z,22.63
2019-01-25T14:13:34.302Z,24.10
2019-01-25T14:18:33.892Z,19.00
2019-01-25T14:23:30.139Z,19.00
2019-01-25T14:28:26.137Z,17.57
2019-01-25T14:33:22.386Z,17.30
2019-01-25T14:38:24.481Z,20.27
2019-01-25T14:44:03.256Z,13.83
2019-01-25T14:49:02.602Z,13.87
2019-01-25T14:54:02.036Z,16.97
2019-01-25T14:58:58.185Z,16.93
2019-01-25T15:03:54.358Z,12.20
2019-01-25T15:08:57.200Z,15.30
2019-01-25T15:14:02.285Z,13.53
2019-01-25T15:19:07.984Z,11.03
2019-01-25T15:24:18.423Z,12.57
2019-01-25T15:29:16.849Z,14.07
2019-01-25T15:34:17.885Z,14.23
2019-01-25T15:39:19.871Z,14.40
2019-01-25T15:44:27.252Z,16.17
2019-01-25T15:49:21.001Z,12.50
2019-01-25T15:54:17.306Z,15.53
2019-01-25T15:59:51.455Z,13.43
2019-01-25T16:04:47.716Z,13.10
2019-01-25T16:11:03.837Z,14.63
2019-01-25T16:16:17.350Z,15.30
2019-01-25T16:21:15.247Z,14.30
2019-01-25T16:26:23.676Z,16.03
2019-01-25T16:31:24.529Z,14.67
2019-01-25T16:36:40.774Z,13.63
2019-01-25T16:41:46.867Z,13.53
2019-01-25T16:46:50.526Z,13.57
2019-01-25T16:52:50.306Z,18.13
2019-01-25T16:58:01.276Z,16.73
2019-01-25T17:03:18.092Z,13.70
2019-01-25T17:08:16.335Z,15.17
2019-01-25T17:14:06.448Z,17.80
2019-01-25T17:19:39.664Z,17.07
2019-01-25T17:24:44.547Z,16.87
2019-01-25T17:30:21.356Z,15.83
2019-01-25T17:42:13.485Z,18.37
2019-01-25T17:55:01.971Z,16.27
2019-01-25T18:26:06.343Z,17.13
2019-01-25T18:31:32.216Z,13.80
2019-01-25T18:36:28.941Z,18.87
2019-01-25T18:41:30.315Z,19.13
2019-01-25T18:46:41.360Z,18.47
2019-01-25T18:58:10.900Z,18.90
2019-01-25T19:03:32.615Z,19.40
2019-01-25T19:08:28.779Z,19.87
2019-01-25T19:13:39.458Z,20.47
2019-01-25T19:18:37.400Z,22.13
2019-01-25T19:23:42.208Z,23.70
2019-01-25T19:28:41.045Z,28.80
2019-01-25T19:33:48.718Z,24.67
2019-01-25T19:39:07.269Z,23.17
2019-01-25T19:45:21.500Z,26.43
2019-01-25T19:57:58.087Z,26.20
2019-01-25T20:03:39.792Z,27.93
2019-01-25T20:08:54.619Z,23.57
2019-01-25T20:13:51.247Z,23.17
2019-01-25T20:19:02.827Z,24.73
2019-01-25T20:24:04.067Z,28.10
2019-01-25T20:29:16.085Z,27.03
2019-01-25T20:34:53.781Z,27.43
2019-01-25T20:41:03.709Z,25.63
2019-01-25T20:46:35.303Z,25.63
2019-01-25T20:51:37.193Z,24.87
2019-01-25T20:56:37.785Z,28.07
2019-01-25T21:01:43.398Z,27.63
2019-01-25T21:06:53.857Z,25.20
2019-01-25T21:12:28.154Z,21.10
2019-01-25T21:18:27.909Z,22.30
2019-01-25T21:23:24.255Z,24.07
2019-01-25T21:28:23.570Z,18.97
2019-01-25T21:33:24.607Z,22.67
2019-01-25T21:38:22.786Z,24.87
2019-01-25T21:43:18.797Z,25.47
2019-01-25T21:48:19.110Z,22.47
2019-01-25T21:53:15.532Z,24.33
2019-01-25T21:58:14.710Z,19.47
2019-01-25T22:03:13.743Z,22.47
2019-01-25T22:08:09.990Z,22.73
2019-01-25T22:13:09.399Z,18.83
2019-01-25T22:18:09.019Z,23.00
2019-01-25T22:35:44.930Z,21.10
2019-01-25T22:42:21.415Z,16.63
2019-01-25T22:53:54.408Z,25.07
2019-01-25T22:59:01.387Z,19.57
2019-01-25T23:04:46.703Z,26.10
2019-01-25T23:10:29.395Z,20.27
2019-01-25T23:15:27.444Z,18.73
2019-01-25T23:20:36.223Z,22.70
2019-01-25T23:25:38.260Z,20.70
2019-01-25T23:30:34.506Z,20.37
2019-01-25T23:35:33.927Z,19.13
2019-01-25T23:40:35.265Z,19.50
2019-01-25T23:45:34.606Z,18.40
2019-01-25T23:50:33.294Z,19.67
2019-01-25T23:55:29.440Z,20.83
